Terminal Aerodrome Forecast
Issued by NWS

Home | Current Version | Previous Version | Text Only | Print | Product List | Glossary On
Versions: 1 2 3 4 5 6 7 8 9 10 11 12 13 14 15 16 17 18 19
000
FTUS46 KSEW 210500
TAFHQM
TAF
KHQM 210529Z 2106/2206 13010KT P6SM VCSH OVC030
      TEMPO 2106/2110 -SHRA OVC022
     FM211700 16012G20KT P6SM -RA OVC035
     FM212000 15014G23KT P6SM -RA OVC025
     FM220300 17018G28KT P6SM RA OVC025=

USA.gov is the U.S. government's official web portal to all federal, state and local government web resources and services.